sensor_id;sensor_type;location;lat;lon;timestamp;P1;durP1;ratioP1;P2;durP2;ratioP2
54460;SDS011;69977;49.414;11.010;2024-01-07T00:00:21;9.50;;;8.27;;
54460;SDS011;69977;49.414;11.010;2024-01-07T00:02:47;10.13;;;8.67;;
54460;SDS011;69977;49.414;11.010;2024-01-07T00:05:13;8.17;;;7.37;;
54460;SDS011;69977;49.414;11.010;2024-01-07T00:07:39;9.37;;;8.10;;
54460;SDS011;69977;49.414;11.010;2024-01-07T00:10:05;17.07;;;7.90;;
54460;SDS011;69977;49.414;11.010;2024-01-07T00:12:31;10.20;;;8.47;;
54460;SDS011;69977;49.414;11.010;2024-01-07T00:14:57;10.13;;;8.07;;
54460;SDS011;69977;49.414;11.010;2024-01-07T00:17:23;8.53;;;7.57;;
54460;SDS011;69977;49.414;11.010;2024-01-07T00:19:49;11.33;;;8.20;;
54460;SDS011;69977;49.414;11.010;2024-01-07T00:22:15;11.90;;;7.90;;
54460;SDS011;69977;49.414;11.010;2024-01-07T00:24:40;11.63;;;7.57;;
54460;SDS011;69977;49.414;11.010;2024-01-07T00:27:06;9.77;;;7.77;;
54460;SDS011;69977;49.414;11.010;2024-01-07T00:29:33;9.53;;;7.73;;
54460;SDS011;69977;49.414;11.010;2024-01-07T00:32:00;11.50;;;8.63;;
54460;SDS011;69977;49.414;11.010;2024-01-07T00:34:27;12.07;;;7.93;;
54460;SDS011;69977;49.414;11.010;2024-01-07T00:36:53;9.77;;;7.90;;
54460;SDS011;69977;49.414;11.010;2024-01-07T00:39:18;8.93;;;7.43;;
54460;SDS011;69977;49.414;11.010;2024-01-07T00:41:44;11.13;;;8.60;;
54460;SDS011;69977;49.414;11.010;2024-01-07T00:44:10;13.23;;;8.30;;
54460;SDS011;69977;49.414;11.010;2024-01-07T00:46:36;9.87;;;8.13;;
54460;SDS011;69977;49.414;11.010;2024-01-07T00:49:03;9.63;;;8.60;;
54460;SDS011;69977;49.414;11.010;2024-01-07T00:51:29;9.10;;;7.43;;
54460;SDS011;69977;49.414;11.010;2024-01-07T00:53:55;9.93;;;8.27;;
54460;SDS011;69977;49.414;11.010;2024-01-07T00:56:21;9.07;;;7.87;;
54460;SDS011;69977;49.414;11.010;2024-01-07T00:58:46;9.30;;;8.30;;
54460;SDS011;69977;49.414;11.010;2024-01-07T01:01:12;9.73;;;8.37;;
54460;SDS011;69977;49.414;11.010;2024-01-07T01:03:38;9.33;;;7.80;;
54460;SDS011;69977;49.414;11.010;2024-01-07T01:06:04;10.07;;;8.00;;
54460;SDS011;69977;49.414;11.010;2024-01-07T01:08:30;11.43;;;7.57;;
54460;SDS011;69977;49.414;11.010;2024-01-07T01:10:56;8.43;;;7.30;;
54460;SDS011;69977;49.414;11.010;2024-01-07T01:13:22;11.13;;;8.10;;
54460;SDS011;69977;49.414;11.010;2024-01-07T01:15:47;9.77;;;7.77;;
54460;SDS011;69977;49.414;11.010;2024-01-07T01:18:13;9.27;;;8.10;;
54460;SDS011;69977;49.414;11.010;2024-01-07T01:20:39;8.70;;;7.80;;
54460;SDS011;69977;49.414;11.010;2024-01-07T01:23:05;9.23;;;7.33;;
54460;SDS011;69977;49.414;11.010;2024-01-07T01:25:31;10.73;;;8.90;;
54460;SDS011;69977;49.414;11.010;2024-01-07T01:27:57;9.27;;;7.90;;
54460;SDS011;69977;49.414;11.010;2024-01-07T01:30:23;10.93;;;8.80;;
54460;SDS011;69977;49.414;11.010;2024-01-07T01:32:49;9.87;;;7.87;;
54460;SDS011;69977;49.414;11.010;2024-01-07T01:35:15;8.83;;;7.73;;
54460;SDS011;69977;49.414;11.010;2024-01-07T01:37:41;10.33;;;8.20;;
54460;SDS011;69977;49.414;11.010;2024-01-07T01:40:07;9.87;;;8.10;;
54460;SDS011;69977;49.414;11.010;2024-01-07T01:42:33;11.87;;;8.20;;
54460;SDS011;69977;49.414;11.010;2024-01-07T01:44:59;11.23;;;7.83;;
54460;SDS011;69977;49.414;11.010;2024-01-07T01:47:27;8.97;;;8.07;;
54460;SDS011;69977;49.414;11.010;2024-01-07T01:49:55;9.03;;;8.13;;
54460;SDS011;69977;49.414;11.010;2024-01-07T01:52:21;10.67;;;7.87;;
54460;SDS011;69977;49.414;11.010;2024-01-07T01:54:47;9.10;;;7.77;;
54460;SDS011;69977;49.414;11.010;2024-01-07T01:57:15;13.50;;;8.17;;
54460;SDS011;69977;49.414;11.010;2024-01-07T01:59:45;12.90;;;9.23;;
54460;SDS011;69977;49.414;11.010;2024-01-07T02:02:11;9.53;;;7.77;;
54460;SDS011;69977;49.414;11.010;2024-01-07T02:04:38;9.17;;;7.57;;
54460;SDS011;69977;49.414;11.010;2024-01-07T02:07:04;9.00;;;7.60;;
54460;SDS011;69977;49.414;11.010;2024-01-07T02:09:31;10.17;;;7.87;;
54460;SDS011;69977;49.414;11.010;2024-01-07T02:12:00;9.47;;;7.80;;
54460;SDS011;69977;49.414;11.010;2024-01-07T02:14:27;9.07;;;7.57;;
54460;SDS011;69977;49.414;11.010;2024-01-07T02:16:53;9.67;;;8.53;;
54460;SDS011;69977;49.414;11.010;2024-01-07T02:19:19;10.40;;;8.00;;
54460;SDS011;69977;49.414;11.010;2024-01-07T02:21:47;9.13;;;8.23;;
54460;SDS011;69977;49.414;11.010;2024-01-07T02:24:16;9.73;;;8.43;;
54460;SDS011;69977;49.414;11.010;2024-01-07T02:26:42;11.23;;;7.80;;
54460;SDS011;69977;49.414;11.010;2024-01-07T02:29:08;11.53;;;8.30;;
54460;SDS011;69977;49.414;11.010;2024-01-07T02:31:34;14.03;;;8.43;;
54460;SDS011;69977;49.414;11.010;2024-01-07T02:34:00;12.77;;;7.83;;
54460;SDS011;69977;49.414;11.010;2024-01-07T02:36:25;9.37;;;8.37;;
54460;SDS011;69977;49.414;11.010;2024-01-07T02:38:51;10.07;;;8.40;;
54460;SDS011;69977;49.414;11.010;2024-01-07T02:41:17;10.60;;;8.47;;
54460;SDS011;69977;49.414;11.010;2024-01-07T02:43:45;8.87;;;7.63;;
54460;SDS011;69977;49.414;11.010;2024-01-07T02:46:11;10.73;;;8.10;;
54460;SDS011;69977;49.414;11.010;2024-01-07T02:48:39;9.20;;;8.30;;
54460;SDS011;69977;49.414;11.010;2024-01-07T02:51:05;9.63;;;7.80;;
54460;SDS011;69977;49.414;11.010;2024-01-07T02:53:33;9.47;;;8.53;;
54460;SDS011;69977;49.414;11.010;2024-01-07T02:55:59;8.37;;;7.47;;
54460;SDS011;69977;49.414;11.010;2024-01-07T02:58:25;9.67;;;7.70;;
54460;SDS011;69977;49.414;11.010;2024-01-07T03:00:51;8.20;;;7.23;;
54460;SDS011;69977;49.414;11.010;2024-01-07T03:03:17;8.70;;;7.37;;
54460;SDS011;69977;49.414;11.010;2024-01-07T03:05:43;8.33;;;7.10;;
54460;SDS011;69977;49.414;11.010;2024-01-07T03:08:09;7.43;;;6.70;;
54460;SDS011;69977;49.414;11.010;2024-01-07T03:10:35;8.60;;;6.40;;
54460;SDS011;69977;49.414;11.010;2024-01-07T03:13:00;7.43;;;5.80;;
54460;SDS011;69977;49.414;11.010;2024-01-07T03:15:28;6.63;;;5.70;;
54460;SDS011;69977;49.414;11.010;2024-01-07T03:17:54;6.67;;;5.97;;
54460;SDS011;69977;49.414;11.010;2024-01-07T03:20:21;7.53;;;6.20;;
54460;SDS011;69977;49.414;11.010;2024-01-07T03:22:47;6.30;;;5.43;;
54460;SDS011;69977;49.414;11.010;2024-01-07T03:25:13;5.67;;;5.00;;
54460;SDS011;69977;49.414;11.010;2024-01-07T03:27:38;5.77;;;4.83;;
54460;SDS011;69977;49.414;11.010;2024-01-07T03:30:05;5.77;;;5.10;;
54460;SDS011;69977;49.414;11.010;2024-01-07T03:32:31;5.80;;;5.10;;
54460;SDS011;69977;49.414;11.010;2024-01-07T03:34:57;5.80;;;5.07;;
54460;SDS011;69977;49.414;11.010;2024-01-07T03:37:22;6.63;;;5.03;;
54460;SDS011;69977;49.414;11.010;2024-01-07T03:39:48;6.17;;;5.53;;
54460;SDS011;69977;49.414;11.010;2024-01-07T03:42:14;6.73;;;5.57;;
54460;SDS011;69977;49.414;11.010;2024-01-07T03:44:40;6.03;;;5.33;;
54460;SDS011;69977;49.414;11.010;2024-01-07T03:47:06;6.13;;;4.90;;
54460;SDS011;69977;49.414;11.010;2024-01-07T03:49:32;6.43;;;5.37;;
54460;SDS011;69977;49.414;11.010;2024-01-07T03:51:58;6.10;;;5.30;;
54460;SDS011;69977;49.414;11.010;2024-01-07T03:54:24;7.33;;;5.90;;
54460;SDS011;69977;49.414;11.010;2024-01-07T03:56:50;6.67;;;5.37;;
54460;SDS011;69977;49.414;11.010;2024-01-07T03:59:16;6.43;;;5.17;;
54460;SDS011;69977;49.414;11.010;2024-01-07T04:01:42;5.63;;;5.10;;
54460;SDS011;69977;49.414;11.010;2024-01-07T04:04:08;7.10;;;5.60;;
54460;SDS011;69977;49.414;11.010;2024-01-07T04:06:34;6.83;;;5.67;;
54460;SDS011;69977;49.414;11.010;2024-01-07T04:08:59;6.13;;;5.53;;
54460;SDS011;69977;49.414;11.010;2024-01-07T04:11:25;7.03;;;5.13;;
54460;SDS011;69977;49.414;11.010;2024-01-07T04:13:51;6.83;;;5.73;;
54460;SDS011;69977;49.414;11.010;2024-01-07T04:16:20;8.17;;;5.90;;
54460;SDS011;69977;49.414;11.010;2024-01-07T04:18:47;7.53;;;5.50;;
54460;SDS011;69977;49.414;11.010;2024-01-07T04:21:12;7.33;;;5.70;;
54460;SDS011;69977;49.414;11.010;2024-01-07T04:23:39;6.90;;;5.70;;
54460;SDS011;69977;49.414;11.010;2024-01-07T04:26:06;5.43;;;4.93;;
54460;SDS011;69977;49.414;11.010;2024-01-07T04:28:32;7.03;;;5.80;;
54460;SDS011;69977;49.414;11.010;2024-01-07T04:30:58;6.77;;;5.40;;
54460;SDS011;69977;49.414;11.010;2024-01-07T04:33:24;6.43;;;5.73;;
54460;SDS011;69977;49.414;11.010;2024-01-07T04:35:50;6.63;;;5.60;;
54460;SDS011;69977;49.414;11.010;2024-01-07T04:38:16;5.67;;;5.17;;
54460;SDS011;69977;49.414;11.010;2024-01-07T04:40:42;6.37;;;4.47;;
54460;SDS011;69977;49.414;11.010;2024-01-07T04:43:08;6.57;;;5.30;;
54460;SDS011;69977;49.414;11.010;2024-01-07T04:45:34;4.50;;;4.10;;
54460;SDS011;69977;49.414;11.010;2024-01-07T04:47:59;6.20;;;4.93;;
54460;SDS011;69977;49.414;11.010;2024-01-07T04:50:25;6.20;;;4.90;;
54460;SDS011;69977;49.414;11.010;2024-01-07T04:52:51;5.97;;;5.27;;
54460;SDS011;69977;49.414;11.010;2024-01-07T04:55:17;5.23;;;4.73;;
54460;SDS011;69977;49.414;11.010;2024-01-07T04:57:43;5.27;;;4.30;;
54460;SDS011;69977;49.414;11.010;2024-01-07T05:00:09;5.60;;;5.00;;
54460;SDS011;69977;49.414;11.010;2024-01-07T05:02:35;5.40;;;4.87;;
54460;SDS011;69977;49.414;11.010;2024-01-07T05:05:01;4.97;;;4.47;;
54460;SDS011;69977;49.414;11.010;2024-01-07T05:07:27;5.00;;;4.50;;
54460;SDS011;69977;49.414;11.010;2024-01-07T05:09:53;5.13;;;4.30;;
54460;SDS011;69977;49.414;11.010;2024-01-07T05:12:19;5.67;;;4.93;;
54460;SDS011;69977;49.414;11.010;2024-01-07T05:14:48;6.33;;;4.90;;
54460;SDS011;69977;49.414;11.010;2024-01-07T05:17:14;4.77;;;4.23;;
54460;SDS011;69977;49.414;11.010;2024-01-07T05:19:40;6.70;;;4.77;;
54460;SDS011;69977;49.414;11.010;2024-01-07T05:22:06;4.73;;;4.23;;
54460;SDS011;69977;49.414;11.010;2024-01-07T05:24:32;5.40;;;4.90;;
54460;SDS011;69977;49.414;11.010;2024-01-07T05:26:58;5.03;;;4.03;;
54460;SDS011;69977;49.414;11.010;2024-01-07T05:29:25;5.83;;;4.23;;
54460;SDS011;69977;49.414;11.010;2024-01-07T05:31:51;4.73;;;3.97;;
54460;SDS011;69977;49.414;11.010;2024-01-07T05:34:17;3.67;;;3.27;;
54460;SDS011;69977;49.414;11.010;2024-01-07T05:36:43;4.10;;;3.70;;
54460;SDS011;69977;49.414;11.010;2024-01-07T05:39:09;4.60;;;4.20;;
54460;SDS011;69977;49.414;11.010;2024-01-07T05:41:36;4.87;;;3.90;;
54460;SDS011;69977;49.414;11.010;2024-01-07T05:44:05;5.07;;;4.53;;
54460;SDS011;69977;49.414;11.010;2024-01-07T05:46:33;4.27;;;3.80;;
54460;SDS011;69977;49.414;11.010;2024-01-07T05:48:59;4.23;;;3.83;;
54460;SDS011;69977;49.414;11.010;2024-01-07T05:51:25;4.37;;;3.97;;
54460;SDS011;69977;49.414;11.010;2024-01-07T05:53:50;5.20;;;4.13;;
54460;SDS011;69977;49.414;11.010;2024-01-07T05:56:16;4.40;;;3.90;;
54460;SDS011;69977;49.414;11.010;2024-01-07T05:58:42;5.83;;;4.60;;
54460;SDS011;69977;49.414;11.010;2024-01-07T06:01:08;4.67;;;4.07;;
54460;SDS011;69977;49.414;11.010;2024-01-07T06:03:34;4.53;;;4.07;;
54460;SDS011;69977;49.414;11.010;2024-01-07T06:06:00;5.23;;;4.23;;
54460;SDS011;69977;49.414;11.010;2024-01-07T06:08:26;5.37;;;4.33;;
54460;SDS011;69977;49.414;11.010;2024-01-07T06:10:52;4.50;;;3.80;;
54460;SDS011;69977;49.414;11.010;2024-01-07T06:13:18;5.80;;;4.70;;
54460;SDS011;69977;49.414;11.010;2024-01-07T06:15:44;5.53;;;4.60;;
54460;SDS011;69977;49.414;11.010;2024-01-07T06:18:10;4.90;;;4.30;;
54460;SDS011;69977;49.414;11.010;2024-01-07T06:20:36;5.07;;;4.57;;
54460;SDS011;69977;49.414;11.010;2024-01-07T06:23:02;5.60;;;4.80;;
54460;SDS011;69977;49.414;11.010;2024-01-07T06:25:28;5.50;;;4.87;;
54460;SDS011;69977;49.414;11.010;2024-01-07T06:27:54;5.10;;;4.60;;
54460;SDS011;69977;49.414;11.010;2024-01-07T06:30:20;5.97;;;4.70;;
54460;SDS011;69977;49.414;11.010;2024-01-07T06:32:46;5.23;;;4.37;;
54460;SDS011;69977;49.414;11.010;2024-01-07T06:35:13;6.27;;;5.07;;
54460;SDS011;69977;49.414;11.010;2024-01-07T06:37:39;5.80;;;4.93;;
54460;SDS011;69977;49.414;11.010;2024-01-07T06:40:05;6.50;;;5.37;;
54460;SDS011;69977;49.414;11.010;2024-01-07T06:42:31;7.20;;;5.53;;
54460;SDS011;69977;49.414;11.010;2024-01-07T06:44:57;6.47;;;5.43;;
54460;SDS011;69977;49.414;11.010;2024-01-07T06:47:23;5.93;;;5.27;;
54460;SDS011;69977;49.414;11.010;2024-01-07T06:49:48;5.37;;;4.83;;
54460;SDS011;69977;49.414;11.010;2024-01-07T06:52:14;5.53;;;4.93;;
54460;SDS011;69977;49.414;11.010;2024-01-07T06:54:40;7.07;;;5.57;;
54460;SDS011;69977;49.414;11.010;2024-01-07T06:57:06;6.27;;;5.53;;
54460;SDS011;69977;49.414;11.010;2024-01-07T06:59:32;6.20;;;5.60;;
54460;SDS011;69977;49.414;11.010;2024-01-07T07:01:58;8.70;;;6.03;;
54460;SDS011;69977;49.414;11.010;2024-01-07T07:04:24;7.33;;;5.60;;
54460;SDS011;69977;49.414;11.010;2024-01-07T07:06:50;6.53;;;5.87;;
54460;SDS011;69977;49.414;11.010;2024-01-07T07:09:16;7.70;;;6.10;;
54460;SDS011;69977;49.414;11.010;2024-01-07T07:11:42;7.83;;;5.90;;
54460;SDS011;69977;49.414;11.010;2024-01-07T07:14:08;8.33;;;6.73;;
54460;SDS011;69977;49.414;11.010;2024-01-07T07:16:34;9.30;;;6.60;;
54460;SDS011;69977;49.414;11.010;2024-01-07T07:19:00;8.47;;;6.03;;
54460;SDS011;69977;49.414;11.010;2024-01-07T07:21:26;8.20;;;6.50;;
54460;SDS011;69977;49.414;11.010;2024-01-07T07:23:52;7.47;;;6.13;;
54460;SDS011;69977;49.414;11.010;2024-01-07T07:26:18;8.50;;;6.50;;
54460;SDS011;69977;49.414;11.010;2024-01-07T07:28:44;6.67;;;5.83;;
54460;SDS011;69977;49.414;11.010;2024-01-07T07:31:10;8.80;;;6.50;;
54460;SDS011;69977;49.414;11.010;2024-01-07T07:33:40;6.90;;;5.93;;
54460;SDS011;69977;49.414;11.010;2024-01-07T07:36:06;7.17;;;6.30;;
54460;SDS011;69977;49.414;11.010;2024-01-07T07:38:33;7.30;;;6.17;;
54460;SDS011;69977;49.414;11.010;2024-01-07T07:40:59;7.67;;;6.37;;
54460;SDS011;69977;49.414;11.010;2024-01-07T07:43:26;7.80;;;6.37;;
54460;SDS011;69977;49.414;11.010;2024-01-07T07:45:52;8.03;;;6.60;;
54460;SDS011;69977;49.414;11.010;2024-01-07T07:48:18;7.77;;;6.27;;
54460;SDS011;69977;49.414;11.010;2024-01-07T07:50:44;8.13;;;7.03;;
54460;SDS011;69977;49.414;11.010;2024-01-07T07:53:10;7.17;;;6.43;;
54460;SDS011;69977;49.414;11.010;2024-01-07T07:55:36;7.37;;;6.67;;
54460;SDS011;69977;49.414;11.010;2024-01-07T07:58:02;8.97;;;7.43;;
54460;SDS011;69977;49.414;11.010;2024-01-07T08:00:28;8.53;;;6.87;;
54460;SDS011;69977;49.414;11.010;2024-01-07T08:02:54;8.13;;;6.90;;
54460;SDS011;69977;49.414;11.010;2024-01-07T08:05:20;8.73;;;7.17;;
54460;SDS011;69977;49.414;11.010;2024-01-07T08:07:46;8.10;;;6.47;;
54460;SDS011;69977;49.414;11.010;2024-01-07T08:10:12;9.03;;;7.37;;
54460;SDS011;69977;49.414;11.010;2024-01-07T08:12:37;9.23;;;7.00;;
54460;SDS011;69977;49.414;11.010;2024-01-07T08:15:04;9.53;;;6.87;;
54460;SDS011;69977;49.414;11.010;2024-01-07T08:17:30;8.77;;;7.13;;
54460;SDS011;69977;49.414;11.010;2024-01-07T08:19:56;8.00;;;7.20;;
54460;SDS011;69977;49.414;11.010;2024-01-07T08:22:22;7.80;;;6.53;;
54460;SDS011;69977;49.414;11.010;2024-01-07T08:24:48;9.40;;;7.93;;
54460;SDS011;69977;49.414;11.010;2024-01-07T08:27:14;7.87;;;7.07;;
54460;SDS011;69977;49.414;11.010;2024-01-07T08:29:42;9.17;;;7.80;;
54460;SDS011;69977;49.414;11.010;2024-01-07T08:32:09;9.20;;;7.70;;
54460;SDS011;69977;49.414;11.010;2024-01-07T08:34:35;9.93;;;7.93;;
54460;SDS011;69977;49.414;11.010;2024-01-07T08:37:01;8.67;;;7.37;;
54460;SDS011;69977;49.414;11.010;2024-01-07T08:39:27;8.90;;;7.20;;
54460;SDS011;69977;49.414;11.010;2024-01-07T08:41:54;8.80;;;7.33;;
54460;SDS011;69977;49.414;11.010;2024-01-07T08:44:20;8.53;;;7.00;;
54460;SDS011;69977;49.414;11.010;2024-01-07T08:46:46;9.07;;;7.40;;
54460;SDS011;69977;49.414;11.010;2024-01-07T08:49:12;9.77;;;7.67;;
54460;SDS011;69977;49.414;11.010;2024-01-07T08:51:39;9.27;;;7.23;;
54460;SDS011;69977;49.414;11.010;2024-01-07T08:54:05;9.00;;;7.27;;
54460;SDS011;69977;49.414;11.010;2024-01-07T08:56:30;9.03;;;7.37;;
54460;SDS011;69977;49.414;11.010;2024-01-07T08:58:56;8.03;;;7.27;;
54460;SDS011;69977;49.414;11.010;2024-01-07T09:01:23;8.17;;;6.40;;
54460;SDS011;69977;49.414;11.010;2024-01-07T09:03:49;10.43;;;7.57;;
54460;SDS011;69977;49.414;11.010;2024-01-07T09:06:15;9.73;;;7.03;;
54460;SDS011;69977;49.414;11.010;2024-01-07T09:08:41;7.97;;;6.73;;
54460;SDS011;69977;49.414;11.010;2024-01-07T09:11:07;7.93;;;6.73;;
54460;SDS011;69977;49.414;11.010;2024-01-07T09:13:36;8.43;;;7.03;;
54460;SDS011;69977;49.414;11.010;2024-01-07T09:16:02;9.80;;;7.60;;
54460;SDS011;69977;49.414;11.010;2024-01-07T09:18:28;9.07;;;7.83;;
54460;SDS011;69977;49.414;11.010;2024-01-07T09:20:54;8.67;;;7.73;;
54460;SDS011;69977;49.414;11.010;2024-01-07T09:23:20;12.03;;;7.77;;
54460;SDS011;69977;49.414;11.010;2024-01-07T09:25:46;9.83;;;7.27;;
54460;SDS011;69977;49.414;11.010;2024-01-07T09:28:12;8.37;;;7.40;;
54460;SDS011;69977;49.414;11.010;2024-01-07T09:30:38;9.40;;;7.50;;
54460;SDS011;69977;49.414;11.010;2024-01-07T09:33:04;9.97;;;8.10;;
54460;SDS011;69977;49.414;11.010;2024-01-07T09:35:30;8.97;;;7.57;;
54460;SDS011;69977;49.414;11.010;2024-01-07T09:37:56;9.57;;;7.67;;
54460;SDS011;69977;49.414;11.010;2024-01-07T09:40:22;9.77;;;7.60;;
54460;SDS011;69977;49.414;11.010;2024-01-07T09:42:48;9.33;;;8.03;;
54460;SDS011;69977;49.414;11.010;2024-01-07T09:45:15;10.73;;;7.80;;
54460;SDS011;69977;49.414;11.010;2024-01-07T09:47:44;8.23;;;7.37;;
54460;SDS011;69977;49.414;11.010;2024-01-07T09:50:11;9.77;;;7.60;;
54460;SDS011;69977;49.414;11.010;2024-01-07T09:52:38;9.90;;;8.00;;
54460;SDS011;69977;49.414;11.010;2024-01-07T09:55:12;9.73;;;8.33;;
54460;SDS011;69977;49.414;11.010;2024-01-07T09:57:47;9.80;;;7.63;;
54460;SDS011;69977;49.414;11.010;2024-01-07T10:00:13;9.23;;;7.67;;
54460;SDS011;69977;49.414;11.010;2024-01-07T10:02:39;8.60;;;7.67;;
54460;SDS011;69977;49.414;11.010;2024-01-07T10:05:06;9.73;;;7.80;;
54460;SDS011;69977;49.414;11.010;2024-01-07T10:07:32;9.73;;;8.20;;
54460;SDS011;69977;49.414;11.010;2024-01-07T10:10:02;11.77;;;8.50;;
54460;SDS011;69977;49.414;11.010;2024-01-07T10:12:44;11.30;;;8.70;;
54460;SDS011;69977;49.414;11.010;2024-01-07T10:15:13;12.70;;;8.27;;
54460;SDS011;69977;49.414;11.010;2024-01-07T10:17:40;10.27;;;8.27;;
54460;SDS011;69977;49.414;11.010;2024-01-07T10:20:10;10.47;;;8.20;;
54460;SDS011;69977;49.414;11.010;2024-01-07T10:22:37;10.63;;;8.27;;
54460;SDS011;69977;49.414;11.010;2024-01-07T10:25:03;10.83;;;8.60;;
54460;SDS011;69977;49.414;11.010;2024-01-07T10:27:29;11.97;;;8.57;;
54460;SDS011;69977;49.414;11.010;2024-01-07T10:29:58;11.57;;;8.17;;
54460;SDS011;69977;49.414;11.010;2024-01-07T10:32:24;11.07;;;8.87;;
54460;SDS011;69977;49.414;11.010;2024-01-07T10:34:50;11.53;;;9.20;;
54460;SDS011;69977;49.414;11.010;2024-01-07T10:37:24;10.10;;;8.37;;
54460;SDS011;69977;49.414;11.010;2024-01-07T10:39:50;10.93;;;8.30;;
54460;SDS011;69977;49.414;11.010;2024-01-07T10:42:17;10.60;;;8.37;;
54460;SDS011;69977;49.414;11.010;2024-01-07T10:44:43;10.73;;;8.40;;
54460;SDS011;69977;49.414;11.010;2024-01-07T10:47:09;11.27;;;8.50;;
54460;SDS011;69977;49.414;11.010;2024-01-07T10:49:37;10.40;;;8.00;;
54460;SDS011;69977;49.414;11.010;2024-01-07T10:52:08;11.33;;;8.37;;
54460;SDS011;69977;49.414;11.010;2024-01-07T10:54:36;11.23;;;8.50;;
54460;SDS011;69977;49.414;11.010;2024-01-07T10:57:09;11.93;;;8.53;;
54460;SDS011;69977;49.414;11.010;2024-01-07T10:59:44;9.93;;;7.90;;
54460;SDS011;69977;49.414;11.010;2024-01-07T11:02:11;11.03;;;9.00;;
54460;SDS011;69977;49.414;11.010;2024-01-07T11:04:43;13.33;;;9.07;;
54460;SDS011;69977;49.414;11.010;2024-01-07T11:07:24;13.47;;;9.27;;
54460;SDS011;69977;49.414;11.010;2024-01-07T11:10:16;9.33;;;8.27;;
54460;SDS011;69977;49.414;11.010;2024-01-07T11:12:53;11.03;;;8.00;;
54460;SDS011;69977;49.414;11.010;2024-01-07T11:18:22;10.27;;;8.87;;
54460;SDS011;69977;49.414;11.010;2024-01-07T11:20:48;12.03;;;8.90;;
54460;SDS011;69977;49.414;11.010;2024-01-07T11:25:58;12.87;;;8.87;;
54460;SDS011;69977;49.414;11.010;2024-01-07T11:34:04;12.97;;;8.83;;
54460;SDS011;69977;49.414;11.010;2024-01-07T11:36:30;11.50;;;8.17;;
54460;SDS011;69977;49.414;11.010;2024-01-07T11:38:56;10.57;;;8.50;;
54460;SDS011;69977;49.414;11.010;2024-01-07T11:41:22;13.50;;;7.90;;
54460;SDS011;69977;49.414;11.010;2024-01-07T11:43:52;10.97;;;8.33;;
54460;SDS011;69977;49.414;11.010;2024-01-07T11:46:25;10.63;;;8.47;;
54460;SDS011;69977;49.414;11.010;2024-01-07T11:48:55;10.73;;;8.33;;
54460;SDS011;69977;49.414;11.010;2024-01-07T11:51:30;11.60;;;8.43;;
54460;SDS011;69977;49.414;11.010;2024-01-07T11:54:00;9.57;;;7.53;;
54460;SDS011;69977;49.414;11.010;2024-01-07T11:56:27;10.13;;;7.70;;
54460;SDS011;69977;49.414;11.010;2024-01-07T11:58:54;14.20;;;8.23;;
54460;SDS011;69977;49.414;11.010;2024-01-07T12:01:23;10.63;;;7.77;;
54460;SDS011;69977;49.414;11.010;2024-01-07T12:03:50;9.17;;;7.07;;
54460;SDS011;69977;49.414;11.010;2024-01-07T12:06:16;8.93;;;7.67;;
54460;SDS011;69977;49.414;11.010;2024-01-07T12:08:44;10.13;;;8.13;;
54460;SDS011;69977;49.414;11.010;2024-01-07T12:11:14;10.93;;;8.17;;
54460;SDS011;69977;49.414;11.010;2024-01-07T12:13:40;10.20;;;7.53;;
54460;SDS011;69977;49.414;11.010;2024-01-07T12:16:07;9.03;;;6.50;;
54460;SDS011;69977;49.414;11.010;2024-01-07T12:18:37;8.00;;;6.60;;
54460;SDS011;69977;49.414;11.010;2024-01-07T12:21:06;7.97;;;6.63;;
54460;SDS011;69977;49.414;11.010;2024-01-07T12:23:35;8.40;;;6.60;;
54460;SDS011;69977;49.414;11.010;2024-01-07T12:26:11;9.70;;;6.93;;
54460;SDS011;69977;49.414;11.010;2024-01-07T12:28:40;10.40;;;7.53;;
54460;SDS011;69977;49.414;11.010;2024-01-07T12:31:07;10.30;;;7.47;;
54460;SDS011;69977;49.414;11.010;2024-01-07T12:33:56;8.70;;;7.20;;
54460;SDS011;69977;49.414;11.010;2024-01-07T12:36:23;9.03;;;6.50;;
54460;SDS011;69977;49.414;11.010;2024-01-07T12:38:49;10.33;;;7.23;;
54460;SDS011;69977;49.414;11.010;2024-01-07T12:41:17;7.90;;;6.50;;
54460;SDS011;69977;49.414;11.010;2024-01-07T12:43:43;8.33;;;6.73;;
54460;SDS011;69977;49.414;11.010;2024-01-07T12:46:08;9.87;;;6.93;;
54460;SDS011;69977;49.414;11.010;2024-01-07T12:48:34;7.73;;;5.97;;
54460;SDS011;69977;49.414;11.010;2024-01-07T12:51:00;7.93;;;6.23;;
54460;SDS011;69977;49.414;11.010;2024-01-07T12:53:27;7.83;;;6.10;;
54460;SDS011;69977;49.414;11.010;2024-01-07T12:55:54;7.43;;;6.37;;
54460;SDS011;69977;49.414;11.010;2024-01-07T12:58:20;12.80;;;6.60;;
54460;SDS011;69977;49.414;11.010;2024-01-07T13:00:47;9.10;;;6.50;;
54460;SDS011;69977;49.414;11.010;2024-01-07T13:03:12;6.53;;;5.87;;
54460;SDS011;69977;49.414;11.010;2024-01-07T13:05:45;9.07;;;6.37;;
54460;SDS011;69977;49.414;11.010;2024-01-07T13:08:15;9.03;;;6.80;;
54460;SDS011;69977;49.414;11.010;2024-01-07T13:10:41;8.97;;;6.27;;
54460;SDS011;69977;49.414;11.010;2024-01-07T13:13:07;9.27;;;6.87;;
54460;SDS011;69977;49.414;11.010;2024-01-07T13:15:36;8.97;;;5.93;;
54460;SDS011;69977;49.414;11.010;2024-01-07T13:18:02;6.83;;;5.87;;
54460;SDS011;69977;49.414;11.010;2024-01-07T13:20:28;7.07;;;6.00;;
54460;SDS011;69977;49.414;11.010;2024-01-07T13:22:53;8.00;;;6.00;;
54460;SDS011;69977;49.414;11.010;2024-01-07T13:25:20;7.97;;;5.53;;
54460;SDS011;69977;49.414;11.010;2024-01-07T13:27:45;7.87;;;5.93;;
54460;SDS011;69977;49.414;11.010;2024-01-07T13:30:11;7.10;;;5.40;;
54460;SDS011;69977;49.414;11.010;2024-01-07T13:32:37;8.07;;;5.87;;
54460;SDS011;69977;49.414;11.010;2024-01-07T13:35:03;7.53;;;5.67;;
54460;SDS011;69977;49.414;11.010;2024-01-07T13:37:29;7.60;;;5.90;;
54460;SDS011;69977;49.414;11.010;2024-01-07T13:39:58;8.27;;;5.67;;
54460;SDS011;69977;49.414;11.010;2024-01-07T13:42:24;7.60;;;5.93;;
54460;SDS011;69977;49.414;11.010;2024-01-07T13:44:50;7.10;;;5.07;;
54460;SDS011;69977;49.414;11.010;2024-01-07T13:47:15;6.60;;;5.43;;
54460;SDS011;69977;49.414;11.010;2024-01-07T13:49:42;6.60;;;5.00;;
54460;SDS011;69977;49.414;11.010;2024-01-07T13:52:10;7.37;;;5.23;;
54460;SDS011;69977;49.414;11.010;2024-01-07T13:54:36;5.23;;;4.73;;
54460;SDS011;69977;49.414;11.010;2024-01-07T13:57:02;9.80;;;4.80;;
54460;SDS011;69977;49.414;11.010;2024-01-07T13:59:29;6.90;;;5.07;;
54460;SDS011;69977;49.414;11.010;2024-01-07T14:01:55;6.53;;;4.47;;
54460;SDS011;69977;49.414;11.010;2024-01-07T14:04:23;8.30;;;5.30;;
54460;SDS011;69977;49.414;11.010;2024-01-07T14:06:55;6.43;;;4.90;;
54460;SDS011;69977;49.414;11.010;2024-01-07T14:09:21;6.03;;;4.53;;
54460;SDS011;69977;49.414;11.010;2024-01-07T14:11:48;6.27;;;4.63;;
54460;SDS011;69977;49.414;11.010;2024-01-07T14:14:14;4.93;;;4.43;;
54460;SDS011;69977;49.414;11.010;2024-01-07T14:16:39;5.97;;;4.60;;
54460;SDS011;69977;49.414;11.010;2024-01-07T14:19:05;5.47;;;4.27;;
54460;SDS011;69977;49.414;11.010;2024-01-07T14:21:31;5.93;;;4.37;;
54460;SDS011;69977;49.414;11.010;2024-01-07T14:23:57;5.87;;;4.63;;
54460;SDS011;69977;49.414;11.010;2024-01-07T14:26:23;5.10;;;3.97;;
54460;SDS011;69977;49.414;11.010;2024-01-07T14:28:49;4.80;;;4.30;;
54460;SDS011;69977;49.414;11.010;2024-01-07T14:31:18;4.73;;;3.77;;
54460;SDS011;69977;49.414;11.010;2024-01-07T14:33:44;5.07;;;4.37;;
54460;SDS011;69977;49.414;11.010;2024-01-07T14:36:10;5.23;;;4.00;;
54460;SDS011;69977;49.414;11.010;2024-01-07T14:38:44;4.07;;;3.67;;